Terminal Aerodrome Forecast
Issued by NWS

Current Version | Previous Version | Text Only | Print | Product List | Glossary On
Versions: 1 2 3 4 5 6 7 8 9 10 11 12 13 14 15 16 17 18 19
355
FTUS45 KABQ 252153 AAA
TAFAEG
TAF AMD
KAEG 252153Z 2522/2618 13010G20KT P6SM SCT250
      TEMPO 2522/2602 07012G20KT
     FM260330 12008KT P6SM SCT050 BKN250
     FM260800 06007KT P6SM BKN200=

USA.gov is the U.S. government's official web portal to all federal, state and local government web resources and services.